CKU2 weather

Treherne Airport
Treherne, Manitoba, Canada

Public forecast

Using degrees Celsius for public forecast. Weather courtesy of forecast.io.

Closest aviation weather report (METAR) to Treherne Airport

Report is more than 6 hours old.

Closest report is Southport Airport, 22.3 nm (41.3 km) NE. Retrieved 2019/10/18 22:00 UTC (13 hours ago):

CYPG 182200Z 21009KT 15SM FEW021 SCT160 BKN220 10/06 A2938 RMK SC1AC2CI3 CC ASOCTD LAST OBS/NEXT 211100 UTC SLP955

Closest aviation forecast (TAF) to Treherne Airport

Forecast is more than 12 hours old.

Closest forecast is Southport Airport, 22.3 nm (41.3 km) NE. Retrieved 2019/10/18 18:33 UTC (17 hours ago):

TAF CYPG 181730Z 1818/1906 18010KT P6SM FEW015 BKN220 BECMG 1821/1823 23008KT OVC150 FM190300 25006KT P6SM OVC070 RMK NXT FCST BY 190000Z